Monday, December 22, 2014, 8:26 AM EST

KRIC, Richmond International Airport

Location: Sandston, VA, United States Lat: 37.517
Local Time: 8:26 AM EST (13:26 GMT) Lon: -77.317
Time Zone: US/Eastern Elev: 167 ft

Show me the last for .
Show Decoded

2014-12-22 07:54 METAR KRIC 221254Z 03006KT 3SM -RA BR FEW055 BKN070 OVC095 02/M01 A3024 =
2014-12-22 06:54 METAR KRIC 221154Z 02007KT 6SM -RA BR SCT037 OVC080 03/M02 A3025 =
2014-12-22 05:54 METAR KRIC 221054Z 05005KT 7SM BKN037 OVC070 03/M02 A3024 =
2014-12-22 04:54 METAR KRIC 220954Z 04004KT 8SM OVC041 03/M02 A3023 RMK AO2 SLP243 T00281022 =
2014-12-22 03:54 METAR KRIC 220854Z 03006KT 10SM OVC043 03/M02 A3025 RMK AO2 SLP250 T00281022
                 58013 =
2014-12-22 02:54 METAR KRIC 220754Z 05004KT 10SM OVC047 03/M02 A3027 RMK AO2 SLP257 T00281022 =
2014-12-22 01:54 METAR KRIC 220654Z 04006KT 9SM OVC046 02/M02 A3028 RMK AO2 SLP259 T00221022 =
2014-12-22 00:54 METAR KRIC 220554Z 05004KT 9SM BKN044 OVC250 02/M02 A3029 RMK AO2 SLP263
                 T00171022 10039 20011 58002 =
2014-12-21 23:54 METAR KRIC 220454Z 05003KT 9SM OVC045 02/M02 A3030 RMK AO2 SLP267 T00171022
                 400830011 =
2014-12-21 22:54 METAR KRIC 220354Z 00000KT 9SM SCT050 BKN250 02/M02 A3031 RMK AO2 SLP269
                 T00171022 =
2014-12-21 21:54 METAR KRIC 220254Z 06005KT 9SM BKN050 OVC250 02/M02 A3030 =
2014-12-21 20:54 METAR KRIC 220154Z 07003KT 10SM SCT050 BKN250 02/M03 A3031 RMK AO2 SLP269
                 T00221028 =
2014-12-21 19:54 METAR KRIC 220054Z 08005KT 10SM SCT250 03/M03 A3030 RMK AO2 SLP268 T00281033 =
2014-12-21 18:54 METAR KRIC 212354Z 08004KT 10SM FEW250 04/M03 A3030 RMK AO2 SLP266 T00391033
                 10083 20033 51008 =
2014-12-21 17:54 METAR KRIC 212254Z 09003KT 10SM FEW250 03/M03 A3030 RMK AO2 SLP266 T00331028 =
2014-12-21 16:54 METAR KRIC 212154Z 08003KT 10SM FEW250 06/M03 A3028 RMK AO2 SLP260 T00611033 =
2014-12-21 15:54 METAR KRIC 212054Z 00000KT 10SM FEW250 07/M03 A3028 RMK AO2 SLP258 T00721033
                 55011 =
2014-12-21 14:54 METAR KRIC 211954Z 06004KT 10SM CLR 08/M03 A3027 RMK AO2 SLP255 T00781033 =
2014-12-21 13:54 METAR KRIC 211854Z 00000KT 10SM CLR 07/M04 A3028 =
2014-12-21 12:54 METAR KRIC 211754Z VRB04KT 10SM BKN060 07/M04 A3031 RMK AO2 SLP270 T00721039
                 10072 20022 58016 =
2014-12-21 11:54 METAR KRIC 211654Z VRB04KT 10SM OVC065 06/M04 A3034 RMK AO2 SLP279 T00561039 =
2014-12-21 10:54 METAR KRIC 211554Z 02003KT 10SM OVC065 05/M04 A3036 RMK AO2 SLP286 T00501044 =
2014-12-21 09:54 METAR KRIC 211454Z 06003KT 10SM OVC065 04/M04 A3036 RMK AO2 SLP286 T00391039
                 53013 =
2014-12-21 08:54 METAR KRIC 211354Z 07003KT 10SM OVC065 03/M04 A3034 RMK AO2 SLP280 T00281039 =

Support USWX by starting your Amazon purchase here.